createdAt,value
2016-11-26T00:00:12.269Z,57.80
2016-11-26T00:01:12.803Z,57.80
2016-11-26T00:02:12.805Z,58.00
2016-11-26T00:03:12.520Z,57.90
2016-11-26T00:04:12.159Z,57.90
2016-11-26T00:05:13.567Z,58.00
2016-11-26T00:06:12.436Z,58.00
2016-11-26T00:07:12.980Z,58.00
2016-11-26T00:08:12.603Z,57.90
2016-11-26T00:09:11.463Z,57.80
2016-11-26T00:10:12.139Z,57.80
2016-11-26T00:11:12.594Z,57.80
2016-11-26T00:12:11.702Z,57.80
2016-11-26T00:13:13.265Z,57.90
2016-11-26T00:14:14.816Z,57.90
2016-11-26T00:15:12.985Z,57.90
2016-11-26T00:16:12.064Z,57.80
2016-11-26T00:17:13.844Z,57.90
2016-11-26T00:18:11.783Z,57.80
2016-11-26T00:19:12.451Z,57.90
2016-11-26T00:20:13.044Z,57.90
2016-11-26T00:21:12.545Z,57.90
2016-11-26T00:22:13.043Z,58.00
2016-11-26T00:23:10.673Z,is
2016-11-26T00:24:12.588Z,58.00
2016-11-26T00:25:12.385Z,57.90
2016-11-26T00:26:11.334Z,58.00
2016-11-26T00:27:12.965Z,58.00
2016-11-26T00:28:13.261Z,57.90
2016-11-26T00:29:12.189Z,58.00
2016-11-26T00:30:12.813Z,58.00
2016-11-26T00:31:12.513Z,57.90
2016-11-26T00:32:11.568Z,57.90
2016-11-26T00:33:12.269Z,58.00
2016-11-26T00:34:12.872Z,57.90
2016-11-26T00:35:12.424Z,57.90
2016-11-26T00:36:11.912Z,57.90
2016-11-26T00:37:11.930Z,57.90
2016-11-26T00:38:12.642Z,57.90
2016-11-26T00:39:12.099Z,57.90
2016-11-26T00:40:13.658Z,58.00
2016-11-26T00:41:12.192Z,57.90
2016-11-26T00:42:12.842Z,58.00
2016-11-26T00:43:11.931Z,58.10
2016-11-26T00:44:12.440Z,58.00
2016-11-26T00:45:11.577Z,57.90
2016-11-26T00:46:12.182Z,58.00
2016-11-26T00:47:12.290Z,57.90
2016-11-26T00:48:12.303Z,57.90
2016-11-26T00:49:12.242Z,57.80
2016-11-26T00:50:12.191Z,58.00
2016-11-26T00:51:13.323Z,57.90
2016-11-26T00:52:12.816Z,57.90
2016-11-26T00:53:12.749Z,57.90
2016-11-26T00:54:13.435Z,57.90
2016-11-26T00:55:12.234Z,57.90
2016-11-26T00:56:12.819Z,57.80
2016-11-26T00:57:12.448Z,57.80
2016-11-26T00:58:12.254Z,57.70
2016-11-26T00:59:12.395Z,57.70
2016-11-26T01:00:12.178Z,57.90
2016-11-26T01:01:10.022Z,is
2016-11-26T01:02:12.909Z,57.80
2016-11-26T01:03:12.772Z,58.00
2016-11-26T01:04:12.335Z,57.90
2016-11-26T01:05:12.557Z,57.10
2016-11-26T01:06:12.229Z,57.80
2016-11-26T01:07:12.933Z,58.00
2016-11-26T01:08:12.925Z,57.90
2016-11-26T01:09:12.337Z,57.80
2016-11-26T01:10:10.812Z,is
2016-11-26T01:11:12.568Z,57.90
2016-11-26T01:12:11.738Z,57.80
2016-11-26T01:13:12.148Z,57.90
2016-11-26T01:14:13.768Z,57.90
2016-11-26T01:15:11.801Z,57.90
2016-11-26T01:16:12.458Z,57.90
2016-11-26T01:17:12.135Z,57.80
2016-11-26T01:18:11.056Z,is
2016-11-26T01:19:12.305Z,58.00
2016-11-26T01:20:14.336Z,57.90
2016-11-26T01:21:12.197Z,57.90
2016-11-26T01:22:12.840Z,58.00
2016-11-26T01:23:11.906Z,58.00
2016-11-26T01:24:12.740Z,58.00
2016-11-26T01:25:12.641Z,58.00
2016-11-26T01:26:13.315Z,58.00
2016-11-26T01:27:13.185Z,58.00
2016-11-26T01:28:13.217Z,57.90
2016-11-26T01:29:13.673Z,58.10
2016-11-26T01:30:16.121Z,58.00
2016-11-26T01:31:13.083Z,57.90
2016-11-26T01:32:13.357Z,57.90
2016-11-26T01:33:13.852Z,58.00
2016-11-26T01:34:13.584Z,58.00
2016-11-26T01:35:13.379Z,58.00
2016-11-26T01:36:12.039Z,58.00
2016-11-26T01:37:14.893Z,58.00
2016-11-26T01:38:14.269Z,58.00
2016-11-26T01:39:11.891Z,58.00
2016-11-26T01:40:13.988Z,57.70
2016-11-26T01:41:13.078Z,58.10
2016-11-26T01:42:13.864Z,58.00
2016-11-26T01:43:12.885Z,58.10
2016-11-26T01:44:11.771Z,58.00
2016-11-26T01:45:13.400Z,58.00
2016-11-26T01:46:13.781Z,58.10
2016-11-26T01:47:13.266Z,58.20
2016-11-26T01:48:12.618Z,58.20
2016-11-26T01:49:11.840Z,58.00
2016-11-26T01:50:13.575Z,58.20
2016-11-26T01:51:13.208Z,58.20
2016-11-26T01:52:13.734Z,58.10
2016-11-26T01:53:15.031Z,58.20
2016-11-26T01:54:13.920Z,58.10
2016-11-26T01:55:12.755Z,58.10
2016-11-26T01:56:14.096Z,58.10
2016-11-26T01:57:10.167Z,is
2016-11-26T01:58:14.413Z,58.10
2016-11-26T01:59:17.592Z,58.10
2016-11-26T02:00:13.566Z,58.10
2016-11-26T02:01:14.128Z,58.20
2016-11-26T02:02:12.478Z,58.00
2016-11-26T02:03:12.930Z,58.00
2016-11-26T02:04:14.064Z,57.90
2016-11-26T02:05:11.996Z,57.30
2016-11-26T02:06:14.641Z,57.80
2016-11-26T02:07:12.846Z,57.80
2016-11-26T02:08:14.371Z,57.80
2016-11-26T02:09:12.769Z,57.80
2016-11-26T02:10:13.601Z,57.70
2016-11-26T02:11:13.920Z,57.70
2016-11-26T02:12:12.096Z,57.80
2016-11-26T02:13:12.081Z,57.80
2016-11-26T02:14:13.728Z,57.90
2016-11-26T02:15:13.061Z,58.00
2016-11-26T02:16:12.852Z,57.80
2016-11-26T02:17:14.270Z,57.80
2016-11-26T02:18:14.511Z,57.90
2016-11-26T02:19:11.608Z,57.90
2016-11-26T02:20:13.082Z,57.80
2016-11-26T02:21:12.573Z,57.70
2016-11-26T02:22:11.660Z,57.80
2016-11-26T02:23:11.953Z,57.70
2016-11-26T02:24:12.290Z,57.70
2016-11-26T02:25:13.199Z,57.70
2016-11-26T02:26:14.074Z,57.70
2016-11-26T02:27:14.048Z,57.80
2016-11-26T02:28:13.716Z,57.70
2016-11-26T02:29:14.112Z,57.70
2016-11-26T02:30:11.859Z,57.80
2016-11-26T02:31:14.147Z,57.70
2016-11-26T02:32:13.081Z,57.80
2016-11-26T02:33:12.931Z,57.70
2016-11-26T02:34:12.780Z,57.90
2016-11-26T02:35:14.282Z,57.70
2016-11-26T02:36:12.278Z,57.80
2016-11-26T02:37:14.697Z,57.90
2016-11-26T02:38:14.251Z,57.90
2016-11-26T02:39:13.492Z,57.90
2016-11-26T02:40:13.634Z,58.10
2016-11-26T02:41:14.592Z,58.00
2016-11-26T02:42:14.001Z,58.10
2016-11-26T02:43:13.742Z,58.00
2016-11-26T02:44:12.683Z,57.80
2016-11-26T02:45:12.293Z,58.00
2016-11-26T02:46:13.569Z,58.00
2016-11-26T02:47:12.576Z,57.90
2016-11-26T02:48:12.662Z,58.00
2016-11-26T02:49:12.198Z,57.90
2016-11-26T02:50:12.240Z,57.90
2016-11-26T02:51:12.862Z,57.90
2016-11-26T02:52:12.865Z,57.90
2016-11-26T02:53:12.537Z,57.80
2016-11-26T02:54:12.880Z,58.10
2016-11-26T02:55:13.544Z,58.00
2016-11-26T02:56:12.533Z,58.00
2016-11-26T02:57:12.051Z,58.00
2016-11-26T02:58:12.205Z,58.00
2016-11-26T02:59:12.795Z,58.10
2016-11-26T03:00:12.904Z,57.90
2016-11-26T03:01:12.324Z,58.00
2016-11-26T03:02:12.245Z,58.10
2016-11-26T03:03:12.184Z,57.90
2016-11-26T03:04:13.781Z,58.00
2016-11-26T03:05:12.745Z,58.10
2016-11-26T03:06:11.686Z,58.10
2016-11-26T03:07:13.442Z,58.10
2016-11-26T03:08:11.518Z,58.00
2016-11-26T03:09:09.526Z,is
2016-11-26T03:10:12.580Z,58.10
2016-11-26T03:11:14.167Z,57.90
2016-11-26T03:12:12.802Z,58.00
2016-11-26T03:13:12.970Z,58.00
2016-11-26T03:14:11.977Z,57.80
2016-11-26T03:15:12.081Z,57.80
2016-11-26T03:16:13.196Z,57.90
2016-11-26T03:17:12.304Z,58.00
2016-11-26T03:18:11.319Z,is
2016-11-26T03:19:10.551Z,is
2016-11-26T03:20:13.067Z,58.00
2016-11-26T03:21:12.754Z,58.10
2016-11-26T03:22:12.385Z,58.00
2016-11-26T03:23:12.001Z,is
2016-11-26T03:24:13.172Z,58.00
2016-11-26T03:25:12.868Z,58.10
2016-11-26T03:26:12.478Z,57.90
2016-11-26T03:27:11.436Z,57.70
2016-11-26T03:28:12.445Z,57.80
2016-11-26T03:29:12.138Z,57.80
2016-11-26T03:30:12.207Z,57.80
2016-11-26T03:31:12.974Z,57.90
2016-11-26T03:32:12.498Z,57.90
2016-11-26T03:33:13.128Z,57.70
2016-11-26T03:34:12.825Z,57.90
2016-11-26T03:35:12.543Z,58.00
2016-11-26T03:36:12.418Z,57.80
2016-11-26T03:37:12.267Z,57.80
2016-11-26T03:38:11.467Z,57.80
2016-11-26T03:39:11.872Z,57.70
2016-11-26T03:40:12.704Z,57.70
2016-11-26T03:41:09.776Z,is
2016-11-26T03:42:15.505Z,58.00
2016-11-26T03:43:13.013Z,58.00
2016-11-26T03:44:14.591Z,57.90
2016-11-26T03:45:12.590Z,57.90
2016-11-26T03:46:11.679Z,57.80
2016-11-26T03:47:12.219Z,57.80
2016-11-26T03:48:12.618Z,57.80
2016-11-26T03:49:12.426Z,58.00
2016-11-26T03:50:11.536Z,57.90
2016-11-26T03:51:12.912Z,57.90
2016-11-26T03:52:12.784Z,57.90
2016-11-26T03:53:11.989Z,57.90
2016-11-26T03:54:12.098Z,57.80
2016-11-26T03:55:13.704Z,57.90
2016-11-26T03:56:13.374Z,57.90
2016-11-26T03:57:13.516Z,57.90
2016-11-26T03:58:12.678Z,57.80
2016-11-26T03:59:12.365Z,57.90
2016-11-26T04:00:10.986Z,is
2016-11-26T04:01:13.309Z,57.80
2016-11-26T04:02:12.831Z,57.80
2016-11-26T04:03:12.686Z,58.00
2016-11-26T04:04:11.723Z,57.90
2016-11-26T04:05:11.789Z,58.00
2016-11-26T04:06:13.007Z,57.80
2016-11-26T04:07:12.929Z,57.90
2016-11-26T04:08:12.559Z,57.90
2016-11-26T04:09:12.610Z,58.00
2016-11-26T04:10:12.308Z,57.90
2016-11-26T04:11:14.217Z,58.00
2016-11-26T04:12:12.761Z,58.00
2016-11-26T04:13:12.390Z,57.80
2016-11-26T04:14:12.270Z,58.10
2016-11-26T04:15:12.877Z,58.00
2016-11-26T04:16:11.927Z,57.90
2016-11-26T04:17:12.538Z,58.00
2016-11-26T04:18:12.115Z,57.90
2016-11-26T04:19:12.425Z,58.10
2016-11-26T04:20:14.122Z,58.20
2016-11-26T04:21:12.544Z,58.00
2016-11-26T04:22:11.653Z,58.00
2016-11-26T04:23:12.432Z,58.20
2016-11-26T04:24:12.751Z,58.00
2016-11-26T04:25:12.495Z,58.00
2016-11-26T04:26:13.150Z,58.20
2016-11-26T04:27:10.789Z,is
2016-11-26T04:28:13.830Z,58.10
2016-11-26T04:29:11.820Z,58.00
2016-11-26T04:30:10.488Z,is
2016-11-26T04:31:12.168Z,58.10
2016-11-26T04:32:12.090Z,58.20
2016-11-26T04:33:12.667Z,58.30
2016-11-26T04:34:11.888Z,58.40
2016-11-26T04:35:12.716Z,58.30
2016-11-26T04:36:11.855Z,58.30
2016-11-26T04:37:12.780Z,58.50
2016-11-26T04:38:13.394Z,58.30
2016-11-26T04:39:12.099Z,58.40
2016-11-26T04:40:13.252Z,58.40
2016-11-26T04:41:12.920Z,58.30
2016-11-26T04:42:14.440Z,58.30
2016-11-26T04:43:12.746Z,58.30
2016-11-26T04:44:12.570Z,58.30
2016-11-26T04:45:11.721Z,58.50
2016-11-26T04:46:12.362Z,58.40
2016-11-26T04:47:10.951Z,is
2016-11-26T04:48:13.272Z,58.20
2016-11-26T04:49:14.672Z,58.30
2016-11-26T04:50:12.425Z,58.40
2016-11-26T04:51:12.920Z,58.30
2016-11-26T04:52:12.619Z,58.30
2016-11-26T04:53:12.434Z,57.70
2016-11-26T04:54:11.553Z,58.60
2016-11-26T04:55:11.581Z,58.30
2016-11-26T04:56:11.629Z,58.40
2016-11-26T04:57:11.661Z,58.30
2016-11-26T04:58:12.551Z,58.40
2016-11-26T04:59:11.693Z,58.30
2016-11-26T05:00:13.390Z,58.30
2016-11-26T05:01:13.236Z,58.40
2016-11-26T05:02:12.851Z,58.40
2016-11-26T05:03:12.595Z,58.40
2016-11-26T05:04:11.761Z,58.30
2016-11-26T05:05:12.527Z,58.50
2016-11-26T05:06:13.234Z,58.40
2016-11-26T05:07:12.271Z,58.30
2016-11-26T05:08:13.122Z,58.30
2016-11-26T05:09:12.563Z,57.80
2016-11-26T05:10:12.181Z,58.30
2016-11-26T05:11:12.240Z,58.30
2016-11-26T05:12:12.146Z,58.30
2016-11-26T05:13:12.499Z,58.30
2016-11-26T05:14:11.542Z,58.30
2016-11-26T05:15:13.314Z,58.60
2016-11-26T05:16:11.168Z,is
2016-11-26T05:17:12.446Z,58.40
2016-11-26T05:18:12.320Z,58.40
2016-11-26T05:19:12.289Z,58.30
2016-11-26T05:20:12.809Z,58.30
2016-11-26T05:21:13.194Z,58.40
2016-11-26T05:22:13.632Z,58.40
2016-11-26T05:23:10.569Z,is
2016-11-26T05:24:13.208Z,58.50
2016-11-26T05:25:16.160Z,58.40
2016-11-26T05:26:12.453Z,58.30
2016-11-26T05:27:12.192Z,58.40
2016-11-26T05:28:12.782Z,58.40
2016-11-26T05:29:12.836Z,58.50
2016-11-26T05:30:14.034Z,58.40
2016-11-26T05:31:12.583Z,58.40
2016-11-26T05:32:11.591Z,58.40
2016-11-26T05:33:11.704Z,58.40
2016-11-26T05:34:12.509Z,58.40
2016-11-26T05:35:12.350Z,58.50
2016-11-26T05:36:12.390Z,58.40
2016-11-26T05:37:11.534Z,58.30
2016-11-26T05:38:12.425Z,58.50
2016-11-26T05:39:14.383Z,58.60
2016-11-26T05:40:12.331Z,58.40
2016-11-26T05:41:10.851Z,is
2016-11-26T05:42:13.506Z,58.50
2016-11-26T05:43:12.256Z,58.60
2016-11-26T05:44:13.807Z,58.40
2016-11-26T05:45:11.893Z,58.40
2016-11-26T05:46:11.980Z,58.40
2016-11-26T05:47:12.093Z,58.40
2016-11-26T05:48:12.157Z,58.30
2016-11-26T05:49:12.744Z,58.40
2016-11-26T05:50:13.356Z,58.40
2016-11-26T05:51:12.842Z,58.40
2016-11-26T05:52:12.722Z,58.50
2016-11-26T05:53:12.007Z,58.40
2016-11-26T05:54:12.012Z,58.40
2016-11-26T05:55:11.983Z,58.40
2016-11-26T05:56:11.997Z,58.40
2016-11-26T05:57:12.747Z,58.40
2016-11-26T05:58:11.806Z,58.40
2016-11-26T05:59:11.982Z,58.50
2016-11-26T06:00:11.973Z,58.50
2016-11-26T06:01:12.566Z,58.50
2016-11-26T06:02:12.069Z,58.60
2016-11-26T06:03:12.810Z,58.70
2016-11-26T06:04:15.096Z,is
2016-11-26T06:05:13.897Z,58.60
2016-11-26T06:06:11.820Z,58.60
2016-11-26T06:07:12.350Z,58.50
2016-11-26T06:08:13.861Z,58.60
2016-11-26T06:09:11.872Z,58.60
2016-11-26T06:10:12.434Z,58.70
2016-11-26T06:11:12.483Z,58.70
2016-11-26T06:12:11.544Z,58.70
2016-11-26T06:13:12.129Z,58.50
2016-11-26T06:14:12.851Z,58.80
2016-11-26T06:15:12.822Z,58.90
2016-11-26T06:16:11.815Z,58.60
2016-11-26T06:17:13.511Z,58.60
2016-11-26T06:18:11.942Z,58.60
2016-11-26T06:19:12.892Z,58.60
2016-11-26T06:20:12.591Z,58.50
2016-11-26T06:21:11.664Z,58.60
2016-11-26T06:22:13.281Z,58.60
2016-11-26T06:23:12.456Z,58.60
2016-11-26T06:24:11.378Z,58.60
2016-11-26T06:25:12.832Z,58.40
2016-11-26T06:26:11.829Z,58.60
2016-11-26T06:27:12.278Z,58.50
2016-11-26T06:28:12.809Z,58.50
2016-11-26T06:29:12.023Z,58.50
2016-11-26T06:30:12.147Z,58.30
2016-11-26T06:31:13.961Z,58.40
2016-11-26T06:32:12.954Z,58.40
2016-11-26T06:33:13.399Z,58.50
2016-11-26T06:34:12.449Z,58.40
2016-11-26T06:35:12.407Z,58.30
2016-11-26T06:36:11.798Z,58.30
2016-11-26T06:37:12.317Z,58.20
2016-11-26T06:38:12.779Z,58.20
2016-11-26T06:39:09.756Z,is
2016-11-26T06:40:12.785Z,58.20
2016-11-26T06:41:11.878Z,58.30
2016-11-26T06:42:12.437Z,58.20
2016-11-26T06:43:11.473Z,58.20
2016-11-26T06:44:12.096Z,58.40
2016-11-26T06:45:12.624Z,58.40
2016-11-26T06:46:10.460Z,is
2016-11-26T06:47:12.556Z,58.40
2016-11-26T06:48:11.754Z,58.40
2016-11-26T06:49:11.785Z,58.40
2016-11-26T06:50:12.548Z,58.60
2016-11-26T06:51:11.692Z,58.50
2016-11-26T06:52:12.634Z,58.60
2016-11-26T06:53:11.669Z,58.70
2016-11-26T06:54:10.564Z,is
2016-11-26T06:55:12.248Z,58.90
2016-11-26T06:56:18.452Z,59.10
2016-11-26T06:57:11.349Z,59.10
2016-11-26T06:58:12.297Z,59.20
2016-11-26T06:59:12.786Z,59.20
2016-11-26T07:00:10.647Z,is
2016-11-26T07:01:13.314Z,59.30
2016-11-26T07:02:09.704Z,is
2016-11-26T07:03:12.659Z,59.50
2016-11-26T07:04:11.788Z,59.40
2016-11-26T07:05:10.601Z,is
2016-11-26T07:06:12.899Z,59.20
2016-11-26T07:07:11.832Z,59.30
2016-11-26T07:08:13.385Z,59.30
2016-11-26T07:09:13.195Z,59.30
2016-11-26T07:10:12.761Z,59.30
2016-11-26T07:11:11.838Z,59.40
2016-11-26T07:12:12.621Z,59.60
2016-11-26T07:13:11.685Z,59.50
2016-11-26T07:14:12.353Z,59.90
2016-11-26T07:15:12.935Z,59.60
2016-11-26T07:16:11.916Z,59.60
2016-11-26T07:17:12.617Z,59.70
2016-11-26T07:18:13.542Z,60.20
2016-11-26T07:19:11.642Z,60.00
2016-11-26T07:20:12.233Z,60.20
2016-11-26T07:21:12.916Z,60.20
2016-11-26T07:22:12.032Z,60.60
2016-11-26T07:23:13.124Z,60.50
2016-11-26T07:24:12.800Z,60.70
2016-11-26T07:25:13.254Z,60.80
2016-11-26T07:26:13.650Z,60.90
2016-11-26T07:27:13.263Z,60.90
2016-11-26T07:28:12.275Z,60.80
2016-11-26T07:29:14.131Z,60.90
2016-11-26T07:30:12.052Z,60.00
2016-11-26T07:31:12.569Z,59.30
2016-11-26T07:32:12.024Z,59.10
2016-11-26T07:33:12.279Z,59.80
2016-11-26T07:34:10.385Z,is
2016-11-26T07:35:12.350Z,60.30
2016-11-26T07:36:12.875Z,60.50
2016-11-26T07:37:11.923Z,60.30
2016-11-26T07:38:12.611Z,60.60
2016-11-26T07:39:11.747Z,60.30
2016-11-26T07:40:09.731Z,is
2016-11-26T07:41:12.410Z,60.20
2016-11-26T07:42:11.365Z,60.30
2016-11-26T07:43:13.984Z,60.20
2016-11-26T07:44:12.059Z,60.20
2016-11-26T07:45:12.120Z,60.30
2016-11-26T07:46:12.745Z,60.10
2016-11-26T07:47:12.825Z,60.20
2016-11-26T07:48:12.804Z,60.20
2016-11-26T07:49:12.364Z,60.00
2016-11-26T07:50:14.922Z,60.20
2016-11-26T07:51:10.436Z,is
2016-11-26T07:52:12.771Z,60.10
2016-11-26T07:53:13.511Z,59.80
2016-11-26T07:54:13.310Z,59.80
2016-11-26T07:55:11.066Z,is
2016-11-26T07:56:11.162Z,is
2016-11-26T07:57:12.714Z,59.80
2016-11-26T07:58:13.262Z,59.70
2016-11-26T07:59:12.431Z,59.80
2016-11-26T08:00:11.633Z,59.70
2016-11-26T08:01:11.559Z,59.60
2016-11-26T08:02:12.340Z,59.60
2016-11-26T08:03:12.724Z,59.60
2016-11-26T08:04:11.870Z,59.40
2016-11-26T08:05:12.010Z,59.50
2016-11-26T08:06:12.169Z,59.30
2016-11-26T08:07:12.850Z,59.40
2016-11-26T08:08:12.819Z,59.40
2016-11-26T08:09:11.922Z,59.40
2016-11-26T08:10:13.011Z,59.30
2016-11-26T08:11:12.502Z,59.20
2016-11-26T08:12:11.621Z,59.30
2016-11-26T08:13:12.279Z,59.20
2016-11-26T08:14:12.276Z,59.30
2016-11-26T08:15:10.967Z,is
2016-11-26T08:16:12.823Z,58.10
2016-11-26T08:17:12.525Z,55.00
2016-11-26T08:18:13.519Z,55.70
2016-11-26T08:19:17.469Z,56.50
2016-11-26T08:20:11.619Z,56.90
2016-11-26T08:21:12.092Z,56.40
2016-11-26T08:22:12.213Z,57.40
2016-11-26T08:23:12.543Z,57.80
2016-11-26T08:24:11.717Z,58.00
2016-11-26T08:25:13.302Z,58.40
2016-11-26T08:26:12.259Z,58.50
2016-11-26T08:27:12.330Z,58.40
2016-11-26T08:28:11.546Z,58.40
2016-11-26T08:29:11.567Z,58.40
2016-11-26T08:30:12.291Z,56.50
2016-11-26T08:31:11.891Z,48.30
2016-11-26T08:32:14.324Z,45.90
2016-11-26T08:33:10.213Z,is
2016-11-26T08:34:11.576Z,45.30
2016-11-26T08:35:11.536Z,48.70
2016-11-26T08:36:11.536Z,50.50
2016-11-26T08:37:12.265Z,51.40
2016-11-26T08:38:12.356Z,53.70
2016-11-26T08:39:11.583Z,53.50
2016-11-26T08:40:12.179Z,54.00
2016-11-26T08:41:12.101Z,54.10
2016-11-26T08:42:12.201Z,54.70
2016-11-26T08:43:12.353Z,55.10
2016-11-26T08:44:12.426Z,55.50
2016-11-26T08:45:11.905Z,55.50
2016-11-26T08:46:11.872Z,55.90
2016-11-26T08:47:12.449Z,55.80
2016-11-26T08:48:12.173Z,55.70
2016-11-26T08:49:12.229Z,55.70
2016-11-26T08:50:13.892Z,55.60
2016-11-26T08:51:12.564Z,55.70
2016-11-26T08:52:13.206Z,55.70
2016-11-26T08:53:14.667Z,55.70
2016-11-26T08:54:11.865Z,55.70
2016-11-26T08:55:11.804Z,55.60
2016-11-26T08:56:11.704Z,55.80
2016-11-26T08:57:12.493Z,55.70
2016-11-26T08:58:11.624Z,55.90
2016-11-26T08:59:12.519Z,55.90
2016-11-26T09:00:12.240Z,55.90
2016-11-26T09:01:12.931Z,56.00
2016-11-26T09:02:10.001Z,is
2016-11-26T09:03:12.304Z,56.30
2016-11-26T09:04:10.081Z,is
2016-11-26T09:05:13.411Z,56.50
2016-11-26T09:06:10.209Z,is
2016-11-26T09:07:12.218Z,56.40
2016-11-26T09:08:11.961Z,56.40
2016-11-26T09:09:09.082Z,is
2016-11-26T09:10:12.974Z,56.50
2016-11-26T09:11:12.455Z,56.50
2016-11-26T09:12:11.494Z,56.60
2016-11-26T09:13:11.526Z,56.60
2016-11-26T09:14:12.572Z,56.50
2016-11-26T09:15:11.594Z,56.50
2016-11-26T09:16:12.232Z,56.50
2016-11-26T09:17:13.091Z,56.60
2016-11-26T09:18:12.395Z,56.50
2016-11-26T09:19:11.822Z,56.60
2016-11-26T09:20:11.827Z,57.10
2016-11-26T09:21:12.612Z,57.00
2016-11-26T09:22:11.560Z,57.20
2016-11-26T09:23:12.975Z,57.70
2016-11-26T09:24:12.633Z,57.90
2016-11-26T09:25:12.643Z,57.80
2016-11-26T09:26:11.555Z,57.70
2016-11-26T09:27:11.504Z,57.70
2016-11-26T09:28:12.274Z,57.90
2016-11-26T09:29:12.293Z,57.80
2016-11-26T09:30:12.103Z,58.00
2016-11-26T09:31:12.489Z,57.90
2016-11-26T09:32:11.668Z,57.90
2016-11-26T09:33:11.732Z,57.90
2016-11-26T09:34:11.855Z,58.20
2016-11-26T09:35:11.870Z,58.10
2016-11-26T09:36:12.593Z,58.20
2016-11-26T09:37:12.238Z,58.10
2016-11-26T09:38:11.992Z,58.00
2016-11-26T09:39:12.578Z,58.00
2016-11-26T09:40:11.482Z,58.00
2016-11-26T09:41:12.207Z,58.00
2016-11-26T09:42:12.845Z,58.00
2016-11-26T09:43:12.351Z,57.80
2016-11-26T09:44:12.353Z,57.90
2016-11-26T09:45:13.875Z,57.20
2016-11-26T09:46:12.519Z,57.60
2016-11-26T09:47:12.133Z,57.10
2016-11-26T09:48:12.002Z,56.80
2016-11-26T09:49:12.572Z,56.90
2016-11-26T09:50:11.508Z,57.10
2016-11-26T09:51:13.287Z,57.20
2016-11-26T09:52:14.013Z,56.90
2016-11-26T09:53:12.113Z,57.20
2016-11-26T09:54:12.946Z,57.10
2016-11-26T09:55:11.962Z,57.10
2016-11-26T09:56:11.950Z,57.80
2016-11-26T09:57:12.014Z,57.50
2016-11-26T09:58:12.025Z,57.30
2016-11-26T09:59:12.126Z,57.30
2016-11-26T10:00:12.002Z,57.30
2016-11-26T10:01:12.428Z,57.40
2016-11-26T10:02:10.263Z,is
2016-11-26T10:03:10.913Z,is
2016-11-26T10:04:13.000Z,57.50
2016-11-26T10:05:12.105Z,57.20
2016-11-26T10:06:12.736Z,57.50
2016-11-26T10:07:11.726Z,57.30
2016-11-26T10:08:11.773Z,57.50
2016-11-26T10:09:12.524Z,57.80
2016-11-26T10:10:11.453Z,57.00
2016-11-26T10:11:12.379Z,56.50
2016-11-26T10:12:11.517Z,56.40
2016-11-26T10:13:13.072Z,56.50
2016-11-26T10:14:12.045Z,57.00
2016-11-26T10:15:12.705Z,57.10
2016-11-26T10:16:12.011Z,56.90
2016-11-26T10:17:12.160Z,57.00
2016-11-26T10:18:12.607Z,56.90
2016-11-26T10:19:13.236Z,57.00
2016-11-26T10:20:12.675Z,56.90
2016-11-26T10:21:13.475Z,57.00
2016-11-26T10:22:11.377Z,57.00
2016-11-26T10:23:12.341Z,57.00
2016-11-26T10:24:12.805Z,57.20
2016-11-26T10:25:11.926Z,57.20
2016-11-26T10:26:12.572Z,57.40
2016-11-26T10:27:12.302Z,57.40
2016-11-26T10:28:12.266Z,57.40
2016-11-26T10:29:12.716Z,57.50
2016-11-26T10:30:12.410Z,57.60
2016-11-26T10:31:11.558Z,57.50
2016-11-26T10:32:12.190Z,57.60
2016-11-26T10:33:10.886Z,is
2016-11-26T10:34:12.616Z,57.70
2016-11-26T10:35:11.643Z,57.70
2016-11-26T10:36:12.429Z,57.70
2016-11-26T10:37:13.228Z,57.70
2016-11-26T10:38:13.312Z,57.80
2016-11-26T10:39:12.027Z,57.80
2016-11-26T10:40:13.400Z,57.80
2016-11-26T10:41:10.296Z,is
2016-11-26T10:42:12.658Z,57.80
2016-11-26T10:43:11.487Z,57.90
2016-11-26T10:44:11.418Z,58.00
2016-11-26T10:45:11.784Z,57.70
2016-11-26T10:46:11.898Z,57.70
2016-11-26T10:47:12.387Z,57.60
2016-11-26T10:48:09.386Z,is
2016-11-26T10:49:11.652Z,58.20
2016-11-26T10:50:12.596Z,58.30
2016-11-26T10:51:14.374Z,49.70
2016-11-26T10:52:10.320Z,is
2016-11-26T10:53:11.786Z,48.70
2016-11-26T10:54:11.723Z,50.60
2016-11-26T10:55:13.534Z,49.20
2016-11-26T10:56:10.342Z,is
2016-11-26T10:57:11.809Z,45.00
2016-11-26T10:58:11.964Z,44.40
2016-11-26T10:59:12.478Z,43.50
2016-11-26T11:00:12.237Z,45.90
2016-11-26T11:01:13.628Z,47.10
2016-11-26T11:02:11.747Z,47.20
2016-11-26T11:03:11.663Z,50.00
2016-11-26T11:04:11.828Z,50.40
2016-11-26T11:05:11.817Z,51.60
2016-11-26T11:06:12.477Z,50.90
2016-11-26T11:07:10.363Z,is
2016-11-26T11:08:12.231Z,52.20
2016-11-26T11:09:12.494Z,52.70
2016-11-26T11:10:12.036Z,53.10
2016-11-26T11:11:12.139Z,53.30
2016-11-26T11:12:12.146Z,53.50
2016-11-26T11:13:12.639Z,53.20
2016-11-26T11:14:13.338Z,54.00
2016-11-26T11:15:13.797Z,54.00
2016-11-26T11:16:12.570Z,54.00
2016-11-26T11:17:12.237Z,54.50
2016-11-26T11:18:12.126Z,54.40
2016-11-26T11:19:12.612Z,55.10
2016-11-26T11:20:12.308Z,55.10
2016-11-26T11:21:12.471Z,55.00
2016-11-26T11:22:12.036Z,55.50
2016-11-26T11:23:12.140Z,55.40
2016-11-26T11:24:12.145Z,55.40
2016-11-26T11:25:12.692Z,55.60
2016-11-26T11:26:11.949Z,55.80
2016-11-26T11:27:12.560Z,55.80
2016-11-26T11:28:13.319Z,56.10
2016-11-26T11:29:12.197Z,56.20
2016-11-26T11:30:12.168Z,56.20
2016-11-26T11:31:12.912Z,56.50
2016-11-26T11:32:12.338Z,56.20
2016-11-26T11:33:12.871Z,56.90
2016-11-26T11:34:11.889Z,56.50
2016-11-26T11:35:13.448Z,56.50
2016-11-26T11:36:11.624Z,55.80
2016-11-26T11:37:11.930Z,55.70
2016-11-26T11:38:12.051Z,55.10
2016-11-26T11:39:12.008Z,51.00
2016-11-26T11:40:12.143Z,52.60
2016-11-26T11:41:12.710Z,53.70
2016-11-26T11:42:11.749Z,53.70
2016-11-26T11:43:12.349Z,53.60
2016-11-26T11:44:10.429Z,is
2016-11-26T11:45:12.629Z,54.50
2016-11-26T11:46:11.627Z,54.40
2016-11-26T11:47:12.253Z,54.70
2016-11-26T11:48:12.132Z,54.70
2016-11-26T11:49:09.364Z,is
2016-11-26T11:50:12.908Z,53.90
2016-11-26T11:51:09.283Z,is
2016-11-26T11:52:12.827Z,53.70
2016-11-26T11:53:11.916Z,53.70
2016-11-26T11:54:09.329Z,is
2016-11-26T11:55:12.387Z,55.00
2016-11-26T11:56:12.413Z,54.80
2016-11-26T11:57:12.169Z,55.00
2016-11-26T11:58:12.768Z,55.00
2016-11-26T11:59:11.689Z,55.50
2016-11-26T12:00:12.326Z,55.70
2016-11-26T12:01:12.180Z,55.40
2016-11-26T12:02:12.764Z,55.30
2016-11-26T12:03:12.587Z,55.40
2016-11-26T12:04:11.670Z,55.40
2016-11-26T12:05:11.722Z,55.20
2016-11-26T12:06:11.820Z,55.20
2016-11-26T12:07:11.879Z,55.60
2016-11-26T12:08:13.658Z,53.60
2016-11-26T12:09:11.569Z,54.10
2016-11-26T12:10:13.468Z,54.20
2016-11-26T12:11:11.839Z,53.90
2016-11-26T12:12:14.607Z,46.40
2016-11-26T12:13:13.500Z,43.40
2016-11-26T12:14:11.676Z,44.00
2016-11-26T12:15:12.284Z,45.70
2016-11-26T12:16:09.629Z,is
2016-11-26T12:17:10.701Z,is
2016-11-26T12:18:11.875Z,48.70
2016-11-26T12:19:13.387Z,48.50
2016-11-26T12:20:12.358Z,48.00
2016-11-26T12:21:12.522Z,50.00
2016-11-26T12:22:12.526Z,50.00
2016-11-26T12:23:12.258Z,51.40
2016-11-26T12:24:13.037Z,51.50
2016-11-26T12:25:12.936Z,51.70
2016-11-26T12:26:12.491Z,51.60
2016-11-26T12:27:12.206Z,51.70
2016-11-26T12:28:12.189Z,51.70
2016-11-26T12:29:12.929Z,51.90
2016-11-26T12:30:10.533Z,is
2016-11-26T12:31:11.760Z,51.80
2016-11-26T12:32:11.707Z,52.10
2016-11-26T12:33:12.354Z,52.20
2016-11-26T12:34:12.951Z,52.10
2016-11-26T12:35:12.019Z,52.20
2016-11-26T12:36:12.058Z,52.30
2016-11-26T12:37:12.509Z,52.40
2016-11-26T12:38:11.976Z,52.50
2016-11-26T12:39:12.016Z,52.60
2016-11-26T12:40:12.668Z,52.80
2016-11-26T12:41:12.269Z,52.80
2016-11-26T12:42:12.654Z,52.80
2016-11-26T12:43:11.816Z,53.00
2016-11-26T12:44:11.910Z,52.90
2016-11-26T12:45:12.580Z,53.20
2016-11-26T12:46:11.657Z,53.20
2016-11-26T12:47:12.368Z,53.20
2016-11-26T12:48:12.427Z,53.20
2016-11-26T12:49:12.271Z,53.40
2016-11-26T12:50:13.983Z,53.50
2016-11-26T12:51:13.416Z,53.50
2016-11-26T12:52:11.501Z,53.50
2016-11-26T12:53:12.134Z,53.50
2016-11-26T12:54:12.802Z,53.50
2016-11-26T12:55:14.318Z,53.60
2016-11-26T12:56:12.341Z,53.70
2016-11-26T12:57:13.596Z,53.80